createdAt,value
2023-02-16T00:01:44.736Z,18.80
2023-02-16T00:04:26.359Z,22.88
2023-02-16T00:06:53.868Z,18.42
2023-02-16T00:09:21.857Z,18.35
2023-02-16T00:12:08.119Z,21.45
2023-02-16T00:14:36.749Z,21.15
2023-02-16T00:17:04.682Z,17.25
2023-02-16T00:19:36.158Z,18.55
2023-02-16T00:22:04.203Z,18.83
2023-02-16T00:24:31.348Z,20.63
2023-02-16T00:26:59.429Z,19.15
2023-02-16T00:29:34.708Z,17.77
2023-02-16T00:32:03.453Z,18.95
2023-02-16T00:34:36.221Z,20.73
2023-02-16T00:37:08.546Z,21.02
2023-02-16T00:39:36.340Z,20.83
2023-02-16T00:42:06.044Z,19.02
2023-02-16T00:44:41.861Z,21.20
2023-02-16T00:47:19.797Z,22.15
2023-02-16T00:49:51.140Z,19.52
2023-02-16T00:52:35.071Z,23.73
2023-02-16T00:55:08.203Z,23.60
2023-02-16T00:57:39.365Z,22.10
2023-02-16T01:00:29.289Z,23.83
2023-02-16T01:02:59.338Z,19.75
2023-02-16T01:05:26.387Z,20.98
2023-02-16T01:08:11.560Z,19.90
2023-02-16T01:10:57.691Z,21.42
2023-02-16T01:13:26.729Z,22.27
2023-02-16T01:15:53.451Z,20.25
2023-02-16T01:18:21.218Z,24.13
2023-02-16T01:20:48.108Z,19.88
2023-02-16T01:23:14.790Z,21.58
2023-02-16T01:25:42.127Z,23.85
2023-02-16T01:28:23.459Z,27.00
2023-02-16T01:30:51.405Z,21.42
2023-02-16T01:33:18.811Z,25.88
2023-02-16T01:35:46.082Z,22.60
2023-02-16T01:38:21.082Z,28.85
2023-02-16T01:40:57.736Z,23.23
2023-02-16T01:43:37.003Z,22.45
2023-02-16T01:46:25.533Z,25.97
2023-02-16T01:48:52.197Z,29.25
2023-02-16T01:51:28.274Z,23.88
2023-02-16T01:54:02.065Z,23.42
2023-02-16T01:56:47.551Z,26.25
2023-02-16T01:59:30.599Z,29.55
2023-02-16T02:02:03.222Z,22.95
2023-02-16T02:05:02.273Z,23.65
2023-02-16T02:07:37.576Z,26.85
2023-02-16T02:10:14.836Z,32.33
2023-02-16T02:12:57.035Z,32.50
2023-02-16T02:15:29.829Z,34.55
2023-02-16T02:17:56.418Z,30.98
2023-02-16T02:20:51.246Z,27.08
2023-02-16T02:23:57.557Z,29.85
2023-02-16T02:26:46.226Z,26.95
2023-02-16T02:29:44.122Z,29.10
2023-02-16T02:32:28.876Z,27.45
2023-02-16T02:35:36.042Z,29.95
2023-02-16T02:38:25.496Z,29.98
2023-02-16T02:41:46.510Z,27.88
2023-02-16T02:44:17.738Z,37.38
2023-02-16T02:46:44.763Z,36.22
2023-02-16T02:49:11.410Z,30.50
2023-02-16T02:51:40.273Z,30.90
2023-02-16T02:54:42.137Z,29.08
2023-02-16T02:57:37.826Z,29.98
2023-02-16T03:00:39.060Z,31.65
2023-02-16T03:03:23.361Z,27.05
2023-02-16T03:05:57.078Z,28.52
2023-02-16T03:08:27.384Z,27.73
2023-02-16T03:11:51.283Z,24.55
2023-02-16T03:14:30.672Z,27.48
2023-02-16T03:17:23.103Z,30.42
2023-02-16T03:20:10.161Z,33.35
2023-02-16T03:22:57.261Z,23.70
2023-02-16T03:25:45.091Z,26.02
2023-02-16T03:28:31.555Z,26.63
2023-02-16T03:31:00.277Z,24.85
2023-02-16T03:33:28.557Z,27.13
2023-02-16T03:35:56.069Z,26.60
2023-02-16T03:38:22.895Z,24.92
2023-02-16T03:40:50.823Z,23.88
2023-02-16T03:43:17.687Z,21.75
2023-02-16T03:45:45.500Z,20.92
2023-02-16T03:48:12.724Z,22.70
2023-02-16T03:50:39.345Z,19.67
2023-02-16T03:53:09.369Z,25.90
2023-02-16T03:55:42.433Z,17.95
2023-02-16T03:58:11.543Z,18.92
2023-02-16T04:00:39.443Z,24.70
2023-02-16T04:03:07.103Z,21.58
2023-02-16T04:05:33.802Z,18.02
2023-02-16T04:08:00.558Z,12.88
2023-02-16T04:10:27.883Z,13.55
2023-02-16T04:12:54.623Z,14.35
2023-02-16T04:15:24.844Z,16.90
2023-02-16T04:20:21.058Z,12.55
2023-02-16T04:22:48.354Z,17.10
2023-02-16T04:25:16.054Z,12.65
2023-02-16T04:27:43.264Z,15.27
2023-02-16T04:30:13.173Z,14.07
2023-02-16T04:32:39.950Z,12.45
2023-02-16T04:35:07.599Z,11.15
2023-02-16T04:37:34.307Z,13.63
2023-02-16T04:40:00.985Z,12.98
2023-02-16T04:42:27.650Z,13.07
2023-02-16T04:44:54.338Z,15.32
2023-02-16T04:47:21.830Z,16.63
2023-02-16T04:49:50.239Z,11.32
2023-02-16T04:52:17.047Z,12.43
2023-02-16T04:54:43.681Z,14.15
2023-02-16T04:57:11.097Z,12.95
2023-02-16T04:59:37.892Z,13.20
2023-02-16T05:02:05.053Z,13.27
2023-02-16T05:04:31.873Z,12.38
2023-02-16T05:06:58.506Z,12.85
2023-02-16T05:09:25.275Z,13.10
2023-02-16T05:12:10.571Z,10.80
2023-02-16T05:14:44.630Z,12.82
2023-02-16T05:17:23.670Z,13.25
2023-02-16T05:19:53.046Z,11.05
2023-02-16T05:22:20.826Z,11.38
2023-02-16T05:24:48.039Z,16.30
2023-02-16T05:27:17.578Z,12.02
2023-02-16T05:29:44.333Z,12.77
2023-02-16T05:32:11.276Z,14.45
2023-02-16T05:34:38.111Z,12.27
2023-02-16T05:37:05.125Z,12.23
2023-02-16T05:39:31.920Z,15.45
2023-02-16T05:41:58.593Z,12.52
2023-02-16T05:44:25.249Z,14.55
2023-02-16T05:46:51.969Z,11.60
2023-02-16T05:49:18.717Z,14.40
2023-02-16T05:51:45.965Z,14.48
2023-02-16T05:54:17.273Z,14.32
2023-02-16T05:56:49.526Z,14.30
2023-02-16T05:59:17.375Z,15.80
2023-02-16T06:01:48.521Z,14.27
2023-02-16T06:04:17.312Z,15.23
2023-02-16T06:06:44.171Z,15.40
2023-02-16T06:09:10.820Z,15.05
2023-02-16T06:11:37.564Z,15.93
2023-02-16T06:14:11.715Z,12.60
2023-02-16T06:16:41.641Z,15.40
2023-02-16T06:19:09.671Z,12.23
2023-02-16T06:21:37.293Z,14.25
2023-02-16T06:24:04.626Z,12.70
2023-02-16T06:26:31.392Z,13.90
2023-02-16T06:28:58.196Z,13.05
2023-02-16T06:31:25.295Z,13.55
2023-02-16T06:33:53.044Z,30.65
2023-02-16T06:36:20.152Z,16.42
2023-02-16T06:38:47.351Z,17.55
2023-02-16T06:41:30.930Z,20.20
2023-02-16T06:44:02.059Z,17.02
2023-02-16T06:46:28.909Z,17.63
2023-02-16T06:48:55.771Z,12.13
2023-02-16T06:51:22.993Z,14.38
2023-02-16T06:53:49.670Z,16.85
2023-02-16T06:56:16.479Z,23.23
2023-02-16T06:58:43.180Z,19.92
2023-02-16T07:01:09.825Z,16.60
2023-02-16T07:03:36.701Z,18.52
2023-02-16T07:06:03.642Z,15.93
2023-02-16T07:08:30.324Z,16.45
2023-02-16T07:10:57.079Z,21.23
2023-02-16T07:13:23.763Z,15.82
2023-02-16T07:15:50.487Z,18.38
2023-02-16T07:18:17.259Z,17.23
2023-02-16T07:20:43.930Z,11.90
2023-02-16T07:23:10.595Z,12.25
2023-02-16T07:25:37.365Z,15.40
2023-02-16T07:28:04.490Z,17.17
2023-02-16T07:30:31.427Z,17.73
2023-02-16T07:32:58.113Z,14.60
2023-02-16T07:35:24.894Z,16.73
2023-02-16T07:37:51.528Z,17.17
2023-02-16T07:40:18.339Z,12.10
2023-02-16T07:42:44.947Z,15.15
2023-02-16T07:45:11.592Z,10.63
2023-02-16T07:47:38.282Z,8.88
2023-02-16T07:50:05.855Z,13.40
2023-02-16T07:52:34.193Z,17.92
2023-02-16T07:55:01.064Z,11.13
2023-02-16T07:57:28.952Z,9.85
2023-02-16T07:59:56.249Z,12.82
2023-02-16T08:02:23.539Z,9.50
2023-02-16T08:04:52.637Z,10.23
2023-02-16T08:07:20.547Z,12.63
2023-02-16T08:09:47.598Z,7.85
2023-02-16T08:12:15.793Z,9.55
2023-02-16T08:14:43.348Z,9.20
2023-02-16T08:17:10.674Z,10.20
2023-02-16T08:19:37.456Z,9.80
2023-02-16T08:22:05.142Z,11.80
2023-02-16T08:24:33.906Z,11.77
2023-02-16T08:27:03.791Z,10.88
2023-02-16T08:29:30.863Z,10.10
2023-02-16T08:31:57.715Z,10.85
2023-02-16T08:34:24.765Z,10.68
2023-02-16T08:36:56.924Z,8.38
2023-02-16T08:39:29.952Z,9.02
2023-02-16T08:41:57.016Z,9.85
2023-02-16T08:44:25.565Z,9.07
2023-02-16T08:46:55.045Z,12.05
2023-02-16T08:49:22.681Z,10.93
2023-02-16T08:51:52.382Z,12.20
2023-02-16T08:54:28.069Z,9.25
2023-02-16T08:56:55.703Z,12.50
2023-02-16T08:59:25.539Z,10.15
2023-02-16T09:01:53.857Z,11.05
2023-02-16T09:04:20.634Z,12.20
2023-02-16T09:06:50.593Z,12.10
2023-02-16T09:09:17.854Z,10.77
2023-02-16T09:11:44.637Z,8.02
2023-02-16T09:14:11.779Z,10.02
2023-02-16T09:16:45.204Z,11.73
2023-02-16T09:19:14.858Z,9.43
2023-02-16T09:21:42.405Z,8.55
2023-02-16T09:24:09.608Z,8.13
2023-02-16T09:26:38.903Z,10.15
2023-02-16T09:29:07.061Z,10.50
2023-02-16T09:31:35.991Z,12.95
2023-02-16T09:34:09.016Z,10.82
2023-02-16T09:36:37.707Z,11.50
2023-02-16T09:39:04.406Z,9.48
2023-02-16T09:41:46.543Z,9.85
2023-02-16T09:44:19.114Z,9.32
2023-02-16T09:46:46.998Z,9.77
2023-02-16T09:49:43.948Z,7.97
2023-02-16T09:52:19.476Z,9.07
2023-02-16T09:54:53.161Z,10.68
2023-02-16T09:57:41.786Z,11.02
2023-02-16T10:00:24.458Z,9.27
2023-02-16T10:03:06.461Z,12.73
2023-02-16T10:05:58.739Z,7.70
2023-02-16T10:08:31.261Z,10.90
2023-02-16T10:11:01.529Z,9.75
2023-02-16T10:16:07.055Z,7.13
2023-02-16T10:18:40.957Z,8.23
2023-02-16T10:21:15.299Z,9.32
2023-02-16T10:23:58.161Z,8.80
2023-02-16T10:26:33.152Z,11.18
2023-02-16T10:29:06.553Z,7.25
2023-02-16T10:31:40.164Z,8.75
2023-02-16T10:34:39.045Z,18.15
2023-02-16T10:37:28.681Z,8.70
2023-02-16T10:40:27.148Z,12.20
2023-02-16T10:43:29.893Z,11.68
2023-02-16T10:46:01.772Z,8.25
2023-02-16T10:48:28.789Z,9.75
2023-02-16T10:51:06.247Z,10.57
2023-02-16T10:54:00.825Z,11.90
2023-02-16T10:56:39.901Z,8.65
2023-02-16T10:59:14.123Z,9.95
2023-02-16T11:01:45.925Z,10.50
2023-02-16T11:04:39.220Z,11.45
2023-02-16T11:07:09.652Z,11.27
2023-02-16T11:09:37.405Z,8.43
2023-02-16T11:12:16.645Z,8.75
2023-02-16T11:14:51.002Z,8.15
2023-02-16T11:17:20.284Z,9.65
2023-02-16T11:20:21.978Z,11.35
2023-02-16T11:22:48.637Z,8.75
2023-02-16T11:25:18.939Z,8.85
2023-02-16T11:30:38.902Z,11.93
2023-02-16T11:33:27.020Z,8.50
2023-02-16T11:35:54.499Z,10.65
2023-02-16T11:38:30.993Z,10.73
2023-02-16T11:40:59.762Z,12.02
2023-02-16T11:43:34.595Z,9.65
2023-02-16T11:46:09.055Z,8.95
2023-02-16T11:48:36.715Z,9.13
2023-02-16T11:51:06.699Z,8.68
2023-02-16T11:53:36.290Z,10.25
2023-02-16T11:56:22.388Z,11.00
2023-02-16T11:59:08.165Z,10.20
2023-02-16T12:01:59.697Z,9.18
2023-02-16T12:04:41.356Z,7.28
2023-02-16T12:07:29.149Z,11.15
2023-02-16T12:09:55.775Z,9.65
2023-02-16T12:12:35.067Z,12.35
2023-02-16T12:15:23.786Z,9.52
2023-02-16T12:18:03.417Z,8.75
2023-02-16T12:20:47.714Z,9.85
2023-02-16T12:23:38.611Z,11.77
2023-02-16T12:26:26.572Z,10.82
2023-02-16T12:29:13.910Z,8.82
2023-02-16T12:31:47.503Z,8.23
2023-02-16T12:34:28.416Z,8.80
2023-02-16T12:37:09.094Z,6.20
2023-02-16T12:39:58.646Z,8.73
2023-02-16T12:42:42.664Z,8.98
2023-02-16T12:45:22.899Z,10.55
2023-02-16T12:47:59.624Z,8.90
2023-02-16T12:50:32.539Z,12.70
2023-02-16T12:53:10.515Z,9.02
2023-02-16T12:55:44.437Z,8.73
2023-02-16T12:58:14.862Z,7.72
2023-02-16T13:01:04.373Z,11.68
2023-02-16T13:03:39.293Z,7.63
2023-02-16T13:06:33.978Z,9.60
2023-02-16T13:09:34.047Z,7.30
2023-02-16T13:12:15.418Z,8.27
2023-02-16T13:14:45.288Z,8.18
2023-02-16T13:17:36.768Z,7.38
2023-02-16T13:20:04.861Z,14.40
2023-02-16T13:22:58.020Z,11.75
2023-02-16T13:25:49.364Z,10.43
2023-02-16T13:28:49.878Z,10.75
2023-02-16T13:34:05.550Z,9.25
2023-02-16T13:37:00.162Z,11.13
2023-02-16T13:40:10.124Z,8.52
2023-02-16T13:43:06.323Z,9.32
2023-02-16T13:45:38.586Z,7.18
2023-02-16T13:48:22.104Z,8.38
2023-02-16T13:50:56.278Z,7.45
2023-02-16T13:53:24.509Z,11.18
2023-02-16T13:56:17.640Z,7.38
2023-02-16T13:58:44.377Z,8.85
2023-02-16T14:01:36.527Z,8.50
2023-02-16T14:04:04.509Z,10.07
2023-02-16T14:06:36.963Z,6.53
2023-02-16T14:09:12.710Z,11.85
2023-02-16T14:12:17.406Z,19.58
2023-02-16T14:14:56.426Z,5.93
2023-02-16T14:17:34.712Z,7.47
2023-02-16T14:20:13.301Z,8.10
2023-02-16T14:22:49.139Z,9.60
2023-02-16T14:25:22.302Z,7.95
2023-02-16T14:27:52.666Z,6.05
2023-02-16T14:33:12.098Z,7.97
2023-02-16T14:35:41.646Z,5.28
2023-02-16T14:38:34.273Z,9.25
2023-02-16T14:41:04.080Z,5.85
2023-02-16T14:43:41.200Z,5.82
2023-02-16T14:46:28.363Z,9.38
2023-02-16T14:49:00.792Z,7.03
2023-02-16T14:52:11.675Z,6.78
2023-02-16T14:54:50.442Z,6.40
2023-02-16T14:57:37.935Z,11.70
2023-02-16T15:00:19.710Z,6.35
2023-02-16T15:03:00.220Z,10.50
2023-02-16T15:05:30.017Z,6.85
2023-02-16T15:08:04.878Z,7.75
2023-02-16T15:10:32.229Z,6.60
2023-02-16T15:12:59.338Z,7.63
2023-02-16T15:15:45.936Z,7.68
2023-02-16T15:18:17.135Z,5.53
2023-02-16T15:20:46.751Z,6.72
2023-02-16T15:23:19.922Z,4.85
2023-02-16T15:25:58.802Z,5.75
2023-02-16T15:28:33.990Z,9.23
2023-02-16T15:31:05.591Z,7.88
2023-02-16T15:33:37.375Z,4.22
2023-02-16T15:36:13.378Z,5.55
2023-02-16T15:38:41.827Z,8.10
2023-02-16T15:41:13.796Z,8.82
2023-02-16T15:43:46.307Z,6.93
2023-02-16T15:46:26.596Z,4.57
2023-02-16T15:51:28.541Z,6.28
2023-02-16T15:54:07.935Z,4.70
2023-02-16T15:56:34.590Z,8.10
2023-02-16T15:59:04.954Z,7.65
2023-02-16T16:04:20.674Z,6.43
2023-02-16T16:06:49.965Z,5.68
2023-02-16T16:09:31.437Z,7.93
2023-02-16T16:12:01.423Z,9.30
2023-02-16T16:14:29.149Z,5.80
2023-02-16T16:16:56.122Z,7.13
2023-02-16T16:19:34.043Z,7.95
2023-02-16T16:22:01.533Z,6.68
2023-02-16T16:24:39.330Z,12.70
2023-02-16T16:27:12.281Z,6.07
2023-02-16T16:29:47.457Z,6.07
2023-02-16T16:32:28.899Z,7.00
2023-02-16T16:34:55.744Z,4.25
2023-02-16T16:37:22.292Z,5.45
2023-02-16T16:40:21.995Z,6.38
2023-02-16T16:43:04.297Z,6.10
2023-02-16T16:45:45.347Z,8.25
2023-02-16T16:48:29.391Z,8.27
2023-02-16T16:51:31.614Z,12.45
2023-02-16T16:54:01.174Z,11.30
2023-02-16T16:56:35.139Z,10.90
2023-02-16T16:59:02.252Z,7.50
2023-02-16T17:01:30.101Z,7.22
2023-02-16T17:03:57.212Z,6.75
2023-02-16T17:06:25.082Z,5.00
2023-02-16T17:08:51.964Z,6.55
2023-02-16T17:11:27.717Z,9.18
2023-02-16T17:13:55.735Z,4.88
2023-02-16T17:16:32.896Z,10.13
2023-02-16T17:18:59.592Z,5.82
2023-02-16T17:21:26.193Z,8.80
2023-02-16T17:23:53.607Z,5.88
2023-02-16T17:26:23.773Z,8.95
2023-02-16T17:28:50.981Z,5.75
2023-02-16T17:31:17.711Z,4.35
2023-02-16T17:33:44.790Z,4.45
2023-02-16T17:36:14.366Z,7.63
2023-02-16T17:38:41.633Z,3.47
2023-02-16T17:41:17.187Z,5.47
2023-02-16T17:43:43.812Z,6.85
2023-02-16T17:46:11.189Z,5.22
2023-02-16T17:48:37.841Z,8.52
2023-02-16T17:51:04.881Z,7.90
2023-02-16T17:53:31.494Z,5.18
2023-02-16T17:55:58.494Z,4.57
2023-02-16T17:58:25.497Z,7.72
2023-02-16T18:00:52.729Z,5.55
2023-02-16T18:03:19.510Z,7.75
2023-02-16T18:05:46.469Z,7.63
2023-02-16T18:08:13.352Z,7.75
2023-02-16T18:10:46.362Z,5.70
2023-02-16T18:13:14.143Z,11.77
2023-02-16T18:15:45.225Z,11.38
2023-02-16T18:18:13.009Z,13.15
2023-02-16T18:20:40.104Z,13.75
2023-02-16T18:23:07.126Z,13.38
2023-02-16T18:25:34.948Z,16.00
2023-02-16T18:28:01.935Z,17.38
2023-02-16T18:30:28.779Z,15.15
2023-02-16T18:32:55.492Z,17.05
2023-02-16T18:35:22.195Z,9.88
2023-02-16T18:37:49.169Z,8.70
2023-02-16T18:40:19.496Z,4.63
2023-02-16T18:45:13.336Z,11.05
2023-02-16T18:47:39.958Z,8.35
2023-02-16T18:50:07.106Z,9.40
2023-02-16T18:52:33.779Z,5.57
2023-02-16T18:55:00.417Z,7.65
2023-02-16T18:57:27.068Z,23.52
2023-02-16T18:59:53.690Z,24.88
2023-02-16T19:02:20.357Z,16.42
2023-02-16T19:04:47.120Z,13.02
2023-02-16T19:07:13.882Z,10.35
2023-02-16T19:09:40.584Z,14.00
2023-02-16T19:12:07.330Z,14.25
2023-02-16T19:14:34.060Z,13.27
2023-02-16T19:17:00.709Z,18.98
2023-02-16T19:19:28.160Z,15.32
2023-02-16T19:21:56.515Z,19.58
2023-02-16T19:24:23.323Z,18.50
2023-02-16T19:26:50.037Z,12.15
2023-02-16T19:29:16.834Z,9.65
2023-02-16T19:31:43.577Z,9.68
2023-02-16T19:34:10.323Z,11.75
2023-02-16T19:36:37.023Z,11.35
2023-02-16T19:39:03.890Z,14.18
2023-02-16T19:41:40.747Z,17.27
2023-02-16T19:44:07.795Z,13.27
2023-02-16T19:46:35.346Z,11.48
2023-02-16T19:49:02.408Z,14.98
2023-02-16T19:51:29.304Z,14.80
2023-02-16T19:53:56.204Z,15.38
2023-02-16T19:56:26.130Z,11.63
2023-02-16T19:58:53.207Z,8.32
2023-02-16T20:01:25.115Z,8.07
2023-02-16T20:03:53.767Z,6.38
2023-02-16T20:06:31.088Z,11.77
2023-02-16T20:09:00.128Z,11.40
2023-02-16T20:11:28.473Z,8.00
2023-02-16T20:13:56.270Z,9.77
2023-02-16T20:16:24.458Z,7.75
2023-02-16T20:18:51.362Z,8.75
2023-02-16T20:21:26.900Z,12.57
2023-02-16T20:23:56.807Z,8.75
2023-02-16T20:26:34.335Z,5.53
2023-02-16T20:29:01.475Z,5.88
2023-02-16T20:31:34.641Z,6.07
2023-02-16T20:34:02.282Z,5.30
2023-02-16T20:36:29.031Z,6.43
2023-02-16T20:38:55.678Z,5.70
2023-02-16T20:41:22.708Z,4.35
2023-02-16T20:43:50.243Z,4.68
2023-02-16T20:46:18.027Z,5.22
2023-02-16T20:48:45.247Z,5.55
2023-02-16T20:51:13.032Z,5.20
2023-02-16T20:53:39.933Z,9.68
2023-02-16T20:56:16.579Z,6.03
2023-02-16T20:58:45.662Z,5.47
2023-02-16T21:01:19.923Z,6.20
2023-02-16T21:03:46.918Z,4.88
2023-02-16T21:06:14.358Z,4.68
2023-02-16T21:08:41.002Z,6.10
2023-02-16T21:11:07.936Z,5.78
2023-02-16T21:13:34.665Z,6.80
2023-02-16T21:16:01.544Z,5.53
2023-02-16T21:18:28.246Z,5.70
2023-02-16T21:20:54.954Z,5.50
2023-02-16T21:23:21.843Z,9.40
2023-02-16T21:25:48.544Z,5.82
2023-02-16T21:28:15.198Z,6.25
2023-02-16T21:30:43.036Z,9.65
2023-02-16T21:33:09.927Z,4.22
2023-02-16T21:35:36.546Z,5.90
2023-02-16T21:38:04.420Z,8.30
2023-02-16T21:40:49.648Z,4.97
2023-02-16T21:43:17.165Z,5.88
2023-02-16T21:45:44.061Z,5.30
2023-02-16T21:48:30.223Z,2.75
2023-02-16T21:51:00.719Z,8.32
2023-02-16T21:53:28.909Z,4.05
2023-02-16T21:56:13.990Z,8.57
2023-02-16T21:58:40.613Z,5.57
2023-02-16T22:01:07.283Z,5.32
2023-02-16T22:03:34.051Z,8.02
2023-02-16T22:06:05.281Z,5.78
2023-02-16T22:08:34.622Z,4.15
2023-02-16T22:11:09.268Z,5.53
2023-02-16T22:13:36.828Z,5.63
2023-02-16T22:16:16.517Z,3.90
2023-02-16T22:18:43.508Z,4.53
2023-02-16T22:21:10.275Z,4.28
2023-02-16T22:23:38.392Z,5.63
2023-02-16T22:26:07.247Z,4.18
2023-02-16T22:28:35.712Z,9.18
2023-02-16T22:31:07.381Z,3.83
2023-02-16T22:33:34.346Z,4.72
2023-02-16T22:36:07.061Z,6.05
2023-02-16T22:38:34.284Z,7.60
2023-02-16T22:41:05.063Z,4.43
2023-02-16T22:43:32.006Z,3.33
2023-02-16T22:45:58.707Z,5.65
2023-02-16T22:48:26.087Z,3.80
2023-02-16T22:50:59.732Z,6.22
2023-02-16T22:53:27.079Z,5.50
2023-02-16T22:55:54.183Z,4.07
2023-02-16T22:58:21.403Z,7.53
2023-02-16T23:00:49.040Z,6.15
2023-02-16T23:03:16.125Z,3.92
2023-02-16T23:05:42.775Z,4.03
2023-02-16T23:08:11.000Z,6.95
2023-02-16T23:10:39.309Z,6.57
2023-02-16T23:13:08.755Z,4.10
2023-02-16T23:15:36.155Z,6.87
2023-02-16T23:18:03.082Z,4.35
2023-02-16T23:20:29.765Z,5.97
2023-02-16T23:22:56.474Z,10.43
2023-02-16T23:25:35.328Z,5.65
2023-02-16T23:28:03.581Z,8.57
2023-02-16T23:30:31.490Z,8.32
2023-02-16T23:32:58.241Z,7.03
2023-02-16T23:35:24.887Z,4.95
2023-02-16T23:37:51.570Z,7.63
2023-02-16T23:40:18.475Z,8.07
2023-02-16T23:42:45.106Z,7.72
2023-02-16T23:45:11.754Z,6.55
2023-02-16T23:47:38.497Z,6.38
2023-02-16T23:50:05.716Z,10.93
2023-02-16T23:52:32.415Z,8.80
2023-02-16T23:54:59.070Z,5.47
2023-02-16T23:57:25.724Z,5.82
2023-02-16T23:59:52.372Z,5.75
